Luxembourg, Luxembourg
Current Conditions -  °F | °C
As of 6:20 PM on Friday 24 Oct 2014 (Local Time) from ELLX Reporting Station
Clear Clear  
Wind Chill: 50°   Ceiling: Unl
Heat Index: 50°   Visibility: 6mi
Dew Point: 43°   Wind: 1mph
Humidity: 76%   Direction: NA
Pressure: 30.09"   Gusts: NA
Location:  49.62°N, 6.12°E
Report Text: ELLX 241620Z VRB01KT CAVOK 10/06 Q1019 NOSIG
Loading
Personal Weather Stations






























Interactive Weather Map
Tropical Storm Tracking
New forecast layout! Learn more

10-Day Weather Forecast

Advertisements
Track Severe Weather on mobile